Airfield :
LOGIN :

Register | Disclaimer

   EN    FR    IT 

 










Legend :    VFR   Marginal VFR   IFR   Intensive IFR   Very Intensive IFR
Visi :
Ceiling :
>= 8 km
>= 3000ft
5 to 8 km
1000 to 3000 ft
1500m to 5 km
500 to 1000 ft
800 to 1500m
200 to 500 ft
< 800m
< 200 ft
Symbols :   Thunderstorms  Fog  Heavy snow  Heavy precipitations  Wind > 20 kt
SIGMETs :     Misc.  Thunderstorms  Icing  Turbulence  Mountain Waves  Volcanic Ashes







- Airport Elevation : 240 ft
- IATA code : VLC


LEVC - Valencia Manises

CURRENT METAR :
  • 190230Z 35007KT 9999 FEW020TCU SCT035 14/12 Q1002 TEMPO 4000 SHRA

EXPIRED METARs :
  • 190200Z 35007KT 9999 -RA FEW020TCU SCT035 14/12 Q1002 TEMPO 4000 SHRA
  • 190130Z 36007KT 9999 -RA FEW020TCU SCT035 14/12 Q1003 TEMPO 4000 SHRA
  • 190100Z 01008KT 350V050 9999 -RA FEW020TCU SCT035 14/12 Q1003 TEMPO 4000 SHRA
  • 190030Z 02007KT 350V060 9999 -RA FEW020TCU SCT035 14/12 Q1004 TEMPO 4000 SHRA
  • 190000Z 02008KT 350V060 9999 -RA FEW020TCU SCT035 14/12 Q1004 TEMPO 4000 SHRA

TAF TAF LEVC
Valid from the 19 at 00:00 until the 20 at 00:00 UTC


182300Z 1900/1924 02007KT 9999 SCT025 BKN040 TX14/1913Z TN10/1906Z
TEMPO 1900/1906 33006KT
BECMG 1906/1908 33007KT
TEMPO 1911/1916 35012G22KT
TEMPO 1900/1916 3000 SHRA BKN012 OVC020 FEW022TCU
PROB30
TEMPO 1900/1904 4000 TSRA FEW020CB BKN022
PROB40
TEMPO 1904/1909 2000 TSRA BKN015 FEW020CB BKN022
BECMG 1918/1920 VRB03KT
No reported NOTAMs for that airfield.
2 SIGMETs reported for the Barcelona FIR (LECB) :
 
SIGMET 8  cancelation
LECB SIGMET 9 VALID 182312/192200 LEVA
LECB BARCELONA FIR/UIR CNL SIGMET 8 VALID 182025/192200=
Embedded thunderstorms
LECB SIGMET 1 VALID 190100/190500 LEVA
LECB BARCELONA FIR/UIR EMBD TS FCST WI N3842 W00046 - N4009 E00330 - N3857 E00432 - N3621 W00103 - N3626 W00103 - N3632 W00103 - N3743 W00114 - N3842 W00046 TOP FL350 MOV N NC=



MET'MAP, your aeronautical weather chart ! - Copyright ORBIFLY December 2007 - Disclaimer

ORBIFLY MET'MAP TEAM :

Programming & Development : Alexandra Zaïnal
Concept & Development : Baudouin d'Aumeries
Co-Development & Prog : Marc-Olivier Méhu
Technical & hardware support : Manuel Goepfert

Contact : metmap@orbifly.com




SOURCES & CREDITS :

   NOAA